createdAt,value
2016-09-18T00:00:09.035Z,0
2016-09-18T00:01:09.005Z,0
2016-09-18T00:02:08.996Z,0
2016-09-18T00:03:08.965Z,0
2016-09-18T00:04:08.948Z,0
2016-09-18T00:05:08.931Z,0
2016-09-18T00:06:09.207Z,0
2016-09-18T00:07:09.199Z,0
2016-09-18T00:08:08.860Z,0
2016-09-18T00:09:08.854Z,0
2016-09-18T00:10:08.829Z,0
2016-09-18T00:11:08.808Z,0
2016-09-18T00:12:08.789Z,0
2016-09-18T00:13:08.767Z,0
2016-09-18T00:14:08.747Z,0
2016-09-18T00:15:08.721Z,0
2016-09-18T00:16:08.701Z,0
2016-09-18T00:17:08.680Z,0
2016-09-18T00:18:08.662Z,0
2016-09-18T00:19:08.643Z,0
2016-09-18T00:20:08.621Z,0
2016-09-18T00:21:08.601Z,0
2016-09-18T00:22:08.577Z,0
2016-09-18T00:23:08.560Z,0
2016-09-18T00:24:08.538Z,0
2016-09-18T00:25:08.519Z,0
2016-09-18T00:26:08.497Z,0
2016-09-18T00:27:08.478Z,0
2016-09-18T00:28:08.461Z,0
2016-09-18T00:29:08.431Z,0
2016-09-18T00:30:08.420Z,0
2016-09-18T00:31:08.386Z,0
2016-09-18T00:32:08.376Z,0
2016-09-18T00:33:08.363Z,0
2016-09-18T00:34:08.337Z,0
2016-09-18T00:35:08.369Z,0
2016-09-18T00:36:08.290Z,0
2016-09-18T00:37:08.567Z,0
2016-09-18T00:38:08.253Z,0
2016-09-18T00:39:08.236Z,0
2016-09-18T00:40:08.212Z,0
2016-09-18T00:41:08.187Z,0
2016-09-18T00:42:08.168Z,0
2016-09-18T00:43:08.439Z,0
2016-09-18T00:44:08.135Z,0
2016-09-18T00:45:08.103Z,0
2016-09-18T00:46:08.085Z,0
2016-09-18T00:47:08.063Z,0
2016-09-18T00:48:08.039Z,0
2016-09-18T00:49:08.025Z,0
2016-09-18T00:50:07.995Z,0
2016-09-18T00:51:08.287Z,0
2016-09-18T00:52:07.954Z,0
2016-09-18T00:53:07.939Z,0
2016-09-18T00:54:07.920Z,0
2016-09-18T00:55:07.908Z,0
2016-09-18T00:56:07.880Z,0
2016-09-18T00:57:07.861Z,0
2016-09-18T00:58:07.835Z,0
2016-09-18T00:59:07.805Z,0
2016-09-18T01:00:07.789Z,0
2016-09-18T01:01:07.768Z,0
2016-09-18T01:02:07.744Z,0
2016-09-18T01:03:07.734Z,0
2016-09-18T01:04:07.707Z,0
2016-09-18T01:05:07.686Z,0
2016-09-18T01:06:07.662Z,0
2016-09-18T01:07:07.950Z,0
2016-09-18T01:08:07.620Z,0
2016-09-18T01:09:07.597Z,0
2016-09-18T01:10:07.582Z,0
2016-09-18T01:11:07.559Z,0
2016-09-18T01:12:07.540Z,0
2016-09-18T01:13:07.517Z,0
2016-09-18T01:14:07.492Z,0
2016-09-18T01:15:07.475Z,0
2016-09-18T01:16:07.457Z,0
2016-09-18T01:17:07.737Z,0
2016-09-18T01:18:07.421Z,0
2016-09-18T01:19:07.389Z,0
2016-09-18T01:20:07.367Z,0
2016-09-18T01:21:07.339Z,0
2016-09-18T01:22:07.325Z,0
2016-09-18T01:23:07.302Z,0
2016-09-18T01:24:07.279Z,0
2016-09-18T01:25:07.268Z,0
2016-09-18T01:26:07.242Z,0
2016-09-18T01:27:07.232Z,0
2016-09-18T01:28:07.195Z,0
2016-09-18T01:29:07.177Z,0
2016-09-18T01:30:07.155Z,0
2016-09-18T01:31:07.130Z,0
2016-09-18T01:32:07.113Z,0
2016-09-18T01:33:07.088Z,0
2016-09-18T01:34:07.079Z,0
2016-09-18T01:35:07.046Z,0
2016-09-18T01:36:07.032Z,0
2016-09-18T01:37:06.997Z,0
2016-09-18T01:38:06.990Z,0
2016-09-18T01:39:06.961Z,0
2016-09-18T01:40:06.943Z,0
2016-09-18T01:41:06.921Z,0
2016-09-18T01:42:06.893Z,0
2016-09-18T01:43:06.873Z,0
2016-09-18T01:44:06.850Z,0
2016-09-18T01:45:06.838Z,0
2016-09-18T01:46:06.810Z,0
2016-09-18T01:47:06.799Z,0
2016-09-18T01:48:06.775Z,0
2016-09-18T01:49:06.747Z,0
2016-09-18T01:50:06.726Z,0
2016-09-18T01:51:06.703Z,0
2016-09-18T01:52:06.686Z,0
2016-09-18T01:53:06.658Z,0
2016-09-18T01:54:06.640Z,0
2016-09-18T01:55:06.619Z,0
2016-09-18T01:56:06.596Z,0
2016-09-18T01:57:06.874Z,0
2016-09-18T01:58:06.558Z,0
2016-09-18T01:59:06.529Z,0
2016-09-18T02:00:06.513Z,0
2016-09-18T02:01:06.491Z,0
2016-09-18T02:02:06.469Z,0
2016-09-18T02:03:06.445Z,0
2016-09-18T02:04:06.420Z,0
2016-09-18T02:05:06.404Z,0
2016-09-18T02:06:06.387Z,0
2016-09-18T02:07:06.363Z,0
2016-09-18T02:08:06.336Z,0
2016-09-18T02:09:06.316Z,0
2016-09-18T02:10:06.291Z,0
2016-09-18T02:11:06.280Z,0
2016-09-18T02:12:06.264Z,0
2016-09-18T02:13:06.235Z,0
2016-09-18T02:14:06.216Z,0
2016-09-18T02:15:06.185Z,0
2016-09-18T02:16:06.171Z,0
2016-09-18T02:17:06.143Z,0
2016-09-18T02:18:06.127Z,0
2016-09-18T02:19:06.104Z,0
2016-09-18T02:20:06.080Z,0
2016-09-18T02:21:06.378Z,0
2016-09-18T02:22:06.031Z,0
2016-09-18T02:23:06.029Z,0
2016-09-18T02:24:05.989Z,0
2016-09-18T02:25:05.971Z,0
2016-09-18T02:26:05.946Z,0
2016-09-18T02:27:05.926Z,0
2016-09-18T02:28:05.911Z,0
2016-09-18T02:29:06.182Z,0
2016-09-18T02:30:05.864Z,0
2016-09-18T02:31:05.846Z,0
2016-09-18T02:32:05.823Z,0
2016-09-18T02:33:05.798Z,0
2016-09-18T02:34:05.773Z,0
2016-09-18T02:35:05.807Z,0
2016-09-18T02:36:05.728Z,0
2016-09-18T02:37:05.716Z,0
2016-09-18T02:38:05.689Z,0
2016-09-18T02:39:05.667Z,0
2016-09-18T02:40:05.650Z,0
2016-09-18T02:41:05.630Z,0
2016-09-18T02:42:05.599Z,0
2016-09-18T02:43:05.586Z,0
2016-09-18T02:44:05.559Z,0
2016-09-18T02:45:05.539Z,0
2016-09-18T02:46:05.517Z,0
2016-09-18T02:47:05.797Z,0
2016-09-18T02:48:05.469Z,0
2016-09-18T02:49:05.464Z,0
2016-09-18T02:50:05.431Z,0
2016-09-18T02:51:05.412Z,0
2016-09-18T02:52:05.390Z,0
2016-09-18T02:53:05.365Z,0
2016-09-18T02:54:05.345Z,0
2016-09-18T02:55:05.614Z,0
2016-09-18T02:56:05.300Z,0
2016-09-18T02:57:05.276Z,0
2016-09-18T02:58:05.253Z,0
2016-09-18T02:59:05.239Z,0
2016-09-18T03:00:05.209Z,0
2016-09-18T03:01:05.196Z,0
2016-09-18T03:02:05.165Z,0
2016-09-18T03:03:05.148Z,0
2016-09-18T03:04:05.127Z,0
2016-09-18T03:05:05.411Z,0
2016-09-18T03:06:05.096Z,0
2016-09-18T03:07:05.073Z,0
2016-09-18T03:08:05.039Z,0
2016-09-18T03:09:05.041Z,0
2016-09-18T03:10:05.023Z,0
2016-09-18T03:11:04.989Z,0
2016-09-18T03:12:04.964Z,0
2016-09-18T03:13:04.942Z,0
2016-09-18T03:14:04.918Z,0
2016-09-18T03:15:04.897Z,0
2016-09-18T03:16:04.885Z,0
2016-09-18T03:17:04.861Z,0
2016-09-18T03:18:04.833Z,0
2016-09-18T03:19:04.825Z,0
2016-09-18T03:20:04.802Z,0
2016-09-18T03:21:04.769Z,0
2016-09-18T03:22:04.743Z,0
2016-09-18T03:23:04.723Z,0
2016-09-18T03:24:04.709Z,0
2016-09-18T03:25:04.689Z,0
2016-09-18T03:26:04.657Z,0
2016-09-18T03:27:04.642Z,0
2016-09-18T03:28:04.629Z,0
2016-09-18T03:29:04.589Z,0
2016-09-18T03:30:04.584Z,0
2016-09-18T03:31:04.552Z,0
2016-09-18T03:32:04.532Z,0
2016-09-18T03:33:04.516Z,0
2016-09-18T03:34:04.489Z,0
2016-09-18T03:35:04.564Z,0
2016-09-18T03:36:04.459Z,0
2016-09-18T03:37:04.421Z,0
2016-09-18T03:38:04.400Z,0
2016-09-18T03:39:04.377Z,0
2016-09-18T03:40:04.367Z,0
2016-09-18T03:41:04.321Z,0
2016-09-18T03:42:04.295Z,0
2016-09-18T03:43:04.282Z,0
2016-09-18T03:44:04.255Z,0
2016-09-18T03:45:04.245Z,0
2016-09-18T03:46:04.505Z,0
2016-09-18T03:47:04.195Z,0
2016-09-18T03:48:04.166Z,0
2016-09-18T03:49:04.151Z,0
2016-09-18T03:50:04.137Z,0
2016-09-18T03:51:04.104Z,0
2016-09-18T03:52:04.384Z,0
2016-09-18T03:53:04.054Z,0
2016-09-18T03:54:04.035Z,0
2016-09-18T03:55:04.036Z,0
2016-09-18T03:56:03.991Z,0
2016-09-18T03:57:03.967Z,0
2016-09-18T03:58:03.944Z,0
2016-09-18T03:59:03.927Z,0
2016-09-18T04:00:03.898Z,0
2016-09-18T04:01:03.878Z,0
2016-09-18T04:02:03.854Z,0
2016-09-18T04:03:03.837Z,0
2016-09-18T04:04:04.115Z,0
2016-09-18T04:05:03.792Z,0
2016-09-18T04:06:03.769Z,0
2016-09-18T04:07:03.747Z,0
2016-09-18T04:08:03.725Z,0
2016-09-18T04:09:03.697Z,0
2016-09-18T04:10:03.681Z,0
2016-09-18T04:11:03.660Z,0
2016-09-18T04:12:03.635Z,0
2016-09-18T04:13:03.617Z,0
2016-09-18T04:14:03.595Z,0
2016-09-18T04:15:03.582Z,0
2016-09-18T04:16:03.554Z,0
2016-09-18T04:17:03.531Z,0
2016-09-18T04:18:03.503Z,0
2016-09-18T04:19:03.782Z,0
2016-09-18T04:20:03.461Z,0
2016-09-18T04:21:03.440Z,0
2016-09-18T04:22:03.415Z,0
2016-09-18T04:23:03.393Z,0
2016-09-18T04:24:03.372Z,0
2016-09-18T04:25:03.356Z,0
2016-09-18T04:26:03.329Z,0
2016-09-18T04:27:03.309Z,0
2016-09-18T04:28:03.285Z,0
2016-09-18T04:29:03.267Z,0
2016-09-18T04:30:03.242Z,0
2016-09-18T04:31:03.232Z,0
2016-09-18T04:32:03.197Z,0
2016-09-18T04:33:03.179Z,0
2016-09-18T04:34:03.160Z,0
2016-09-18T04:35:03.138Z,0
2016-09-18T04:36:03.125Z,0
2016-09-18T04:37:03.098Z,0
2016-09-18T04:38:03.069Z,0
2016-09-18T04:39:03.042Z,0
2016-09-18T04:40:03.029Z,0
2016-09-18T04:41:02.999Z,0
2016-09-18T04:42:02.993Z,0
2016-09-18T04:43:02.965Z,0
2016-09-18T04:44:02.937Z,0
2016-09-18T04:45:02.918Z,0
2016-09-18T04:46:02.894Z,0
2016-09-18T04:47:02.872Z,0
2016-09-18T04:48:02.847Z,0
2016-09-18T04:49:03.126Z,0
2016-09-18T04:50:02.799Z,0
2016-09-18T04:51:02.784Z,0
2016-09-18T04:52:02.759Z,0
2016-09-18T04:53:02.742Z,0
2016-09-18T04:54:02.725Z,0
2016-09-18T04:55:02.697Z,0
2016-09-18T04:56:02.681Z,0
2016-09-18T04:57:02.658Z,0
2016-09-18T04:58:02.642Z,0
2016-09-18T04:59:02.607Z,0
2016-09-18T05:00:02.585Z,0
2016-09-18T05:01:02.568Z,0
2016-09-18T05:02:02.541Z,0
2016-09-18T05:03:02.822Z,0
2016-09-18T05:04:02.501Z,0
2016-09-18T05:05:02.482Z,0
2016-09-18T05:06:02.454Z,0
2016-09-18T05:07:02.434Z,5
2016-09-18T05:08:02.419Z,5
2016-09-18T05:09:02.382Z,0
2016-09-18T05:10:02.371Z,5
2016-09-18T05:11:02.348Z,5
2016-09-18T05:12:02.323Z,0
2016-09-18T05:13:02.315Z,0
2016-09-18T05:14:02.289Z,0
2016-09-18T05:15:02.267Z,0
2016-09-18T05:16:02.234Z,0
2016-09-18T05:17:02.220Z,0
2016-09-18T05:18:02.194Z,5
2016-09-18T05:19:02.470Z,5
2016-09-18T05:20:02.151Z,5
2016-09-18T05:21:02.137Z,5
2016-09-18T05:22:02.431Z,5
2016-09-18T05:23:02.082Z,5
2016-09-18T05:24:02.063Z,5
2016-09-18T05:25:02.041Z,10
2016-09-18T05:26:02.020Z,10
2016-09-18T05:27:02.002Z,10
2016-09-18T05:28:01.976Z,10
2016-09-18T05:29:01.959Z,10
2016-09-18T05:30:01.930Z,10
2016-09-18T05:31:01.902Z,10
2016-09-18T05:32:01.887Z,10
2016-09-18T05:33:01.862Z,10
2016-09-18T05:34:01.846Z,10
2016-09-18T05:35:01.828Z,15
2016-09-18T05:36:01.805Z,20
2016-09-18T05:37:01.776Z,15
2016-09-18T05:38:01.753Z,20
2016-09-18T05:39:01.736Z,20
2016-09-18T05:40:01.709Z,20
2016-09-18T05:41:01.690Z,20
2016-09-18T05:42:01.670Z,25
2016-09-18T05:43:01.643Z,20
2016-09-18T05:44:01.627Z,20
2016-09-18T05:45:01.599Z,25
2016-09-18T05:46:01.584Z,25
2016-09-18T05:47:01.559Z,25
2016-09-18T05:48:01.536Z,25
2016-09-18T05:49:01.519Z,25
2016-09-18T05:50:01.492Z,25
2016-09-18T05:51:01.482Z,25
2016-09-18T05:52:01.456Z,20
2016-09-18T05:53:01.431Z,20
2016-09-18T05:54:01.402Z,25
2016-09-18T05:55:01.385Z,20
2016-09-18T05:56:01.365Z,20
2016-09-18T05:57:01.341Z,20
2016-09-18T05:58:01.321Z,20
2016-09-18T05:59:01.299Z,25
2016-09-18T06:00:01.282Z,25
2016-09-18T06:01:01.254Z,25
2016-09-18T06:02:01.242Z,20
2016-09-18T06:03:01.211Z,20
2016-09-18T06:04:01.193Z,25
2016-09-18T06:05:01.185Z,25
2016-09-18T06:06:01.146Z,25
2016-09-18T06:07:01.124Z,30
2016-09-18T06:08:01.101Z,30
2016-09-18T06:09:01.079Z,25
2016-09-18T06:10:01.058Z,25
2016-09-18T06:11:01.038Z,25
2016-09-18T06:12:01.015Z,30
2016-09-18T06:13:00.990Z,25
2016-09-18T06:14:00.979Z,20
2016-09-18T06:15:00.949Z,20
2016-09-18T06:16:00.924Z,20
2016-09-18T06:17:00.905Z,25
2016-09-18T06:18:00.879Z,30
2016-09-18T06:19:00.861Z,35
2016-09-18T06:20:00.848Z,40
2016-09-18T06:21:00.819Z,45
2016-09-18T06:22:00.802Z,45
2016-09-18T06:23:00.772Z,40
2016-09-18T06:24:00.756Z,40
2016-09-18T06:25:00.729Z,40
2016-09-18T06:26:00.712Z,40
2016-09-18T06:27:00.704Z,40
2016-09-18T06:28:00.675Z,45
2016-09-18T06:29:00.648Z,50
2016-09-18T06:30:00.624Z,50
2016-09-18T06:31:00.616Z,55
2016-09-18T06:32:00.576Z,60
2016-09-18T06:33:00.558Z,70
2016-09-18T06:34:00.538Z,75
2016-09-18T06:35:00.520Z,80
2016-09-18T06:36:00.493Z,90
2016-09-18T06:37:00.477Z,95
2016-09-18T06:38:00.450Z,100
2016-09-18T06:39:00.429Z,110
2016-09-18T06:40:00.421Z,115
2016-09-18T06:41:00.389Z,110
2016-09-18T06:42:00.362Z,110
2016-09-18T06:43:00.340Z,115
2016-09-18T06:44:00.320Z,125
2016-09-18T06:45:00.303Z,135
2016-09-18T06:46:00.280Z,125
2016-09-18T06:47:00.250Z,125
2016-09-18T06:48:00.537Z,130
2016-09-18T06:49:00.208Z,125
2016-09-18T06:50:00.192Z,125
2016-09-18T06:51:00.169Z,135
2016-09-18T06:52:00.147Z,145
2016-09-18T06:53:00.428Z,155
2016-09-18T06:54:00.107Z,155
2016-09-18T06:55:00.395Z,155
2016-09-18T06:56:00.069Z,135
2016-09-18T06:57:00.045Z,125
2016-09-18T06:58:00.037Z,120
2016-09-18T06:59:00.013Z,120
2016-09-18T06:59:59.978Z,125
2016-09-18T07:00:59.961Z,115
2016-09-18T07:01:59.935Z,115
2016-09-18T07:02:59.920Z,110
2016-09-18T07:03:59.895Z,105
2016-09-18T07:04:59.875Z,110
2016-09-18T07:05:59.851Z,120
2016-09-18T07:06:59.832Z,115
2016-09-18T07:07:59.812Z,115
2016-09-18T07:08:59.791Z,120
2016-09-18T07:09:59.770Z,120
2016-09-18T07:10:59.742Z,95
2016-09-18T07:11:59.723Z,90
2016-09-18T07:12:59.706Z,95
2016-09-18T07:13:59.685Z,90
2016-09-18T07:14:59.661Z,80
2016-09-18T07:15:59.642Z,85
2016-09-18T07:16:59.622Z,85
2016-09-18T07:17:59.596Z,80
2016-09-18T07:18:59.576Z,75
2016-09-18T07:19:59.558Z,90
2016-09-18T07:20:59.534Z,90
2016-09-18T07:21:59.516Z,90
2016-09-18T07:22:59.496Z,90
2016-09-18T07:23:59.827Z,90
2016-09-18T07:24:59.453Z,95
2016-09-18T07:25:59.433Z,125
2016-09-18T07:26:59.405Z,145
2016-09-18T07:27:59.381Z,125
2016-09-18T07:28:59.363Z,110
2016-09-18T07:29:59.638Z,100
2016-09-18T07:30:59.321Z,95
2016-09-18T07:31:59.300Z,90
2016-09-18T07:32:59.291Z,90
2016-09-18T07:33:59.256Z,105
2016-09-18T07:34:59.232Z,115
2016-09-18T07:35:59.235Z,120
2016-09-18T07:36:59.194Z,165
2016-09-18T07:37:59.176Z,190
2016-09-18T07:38:59.150Z,145
2016-09-18T07:39:59.130Z,130
2016-09-18T07:40:59.107Z,110
2016-09-18T07:41:59.085Z,85
2016-09-18T07:42:59.074Z,70
2016-09-18T07:43:59.047Z,65
2016-09-18T07:44:59.024Z,65
2016-09-18T07:45:59.003Z,65
2016-09-18T07:46:58.981Z,65
2016-09-18T07:47:58.962Z,75
2016-09-18T07:48:58.935Z,80
2016-09-18T07:49:58.919Z,85
2016-09-18T07:50:58.898Z,85
2016-09-18T07:51:58.882Z,90
2016-09-18T07:52:58.856Z,100
2016-09-18T07:53:58.834Z,120
2016-09-18T07:54:58.805Z,130
2016-09-18T07:55:58.791Z,125
2016-09-18T07:56:58.768Z,140
2016-09-18T07:57:58.746Z,175
2016-09-18T07:58:58.725Z,210
2016-09-18T07:59:58.700Z,240
2016-09-18T08:00:58.682Z,265
2016-09-18T08:01:58.671Z,275
2016-09-18T08:02:58.637Z,275
2016-09-18T08:03:58.623Z,280
2016-09-18T08:04:58.595Z,280
2016-09-18T08:05:58.578Z,270
2016-09-18T08:06:58.553Z,280
2016-09-18T08:07:58.530Z,265
2016-09-18T08:08:58.513Z,275
2016-09-18T08:09:58.490Z,305
2016-09-18T08:10:58.465Z,310
2016-09-18T08:11:58.446Z,320
2016-09-18T08:12:58.422Z,350
2016-09-18T08:13:58.405Z,335
2016-09-18T08:14:58.380Z,335
2016-09-18T08:15:58.359Z,340
2016-09-18T08:16:58.345Z,340
2016-09-18T08:17:58.326Z,355
2016-09-18T08:18:58.317Z,345
2016-09-18T08:19:58.281Z,335
2016-09-18T08:20:58.262Z,325
2016-09-18T08:21:58.236Z,305
2016-09-18T08:22:58.229Z,315
2016-09-18T08:23:58.203Z,355
2016-09-18T08:24:58.198Z,370
2016-09-18T08:25:58.161Z,335
2016-09-18T08:26:58.135Z,285
2016-09-18T08:27:58.125Z,240
2016-09-18T08:28:58.104Z,245
2016-09-18T08:29:58.073Z,255
2016-09-18T08:30:58.051Z,270
2016-09-18T08:31:58.031Z,325
2016-09-18T08:32:58.012Z,310
2016-09-18T08:33:57.998Z,350
2016-09-18T08:34:57.975Z,340
2016-09-18T08:35:57.949Z,335
2016-09-18T08:36:57.940Z,320
2016-09-18T08:37:57.919Z,310
2016-09-18T08:38:57.891Z,380
2016-09-18T08:39:57.871Z,410
2016-09-18T08:40:57.849Z,440
2016-09-18T08:41:57.832Z,420
2016-09-18T08:42:57.813Z,415
2016-09-18T08:43:57.792Z,425
2016-09-18T08:44:57.768Z,375
2016-09-18T08:45:57.746Z,375
2016-09-18T08:46:57.733Z,365
2016-09-18T08:47:57.704Z,340
2016-09-18T08:48:57.683Z,350
2016-09-18T08:49:57.667Z,375
2016-09-18T08:50:57.651Z,365
2016-09-18T08:51:57.633Z,325
2016-09-18T08:52:57.605Z,305
2016-09-18T08:53:57.583Z,260
2016-09-18T08:54:57.570Z,250
2016-09-18T08:55:57.546Z,280
2016-09-18T08:56:57.520Z,305
2016-09-18T08:57:57.506Z,350
2016-09-18T08:58:57.483Z,335
2016-09-18T08:59:57.462Z,315
2016-09-18T09:00:57.456Z,365
2016-09-18T09:01:57.433Z,400
2016-09-18T09:02:57.410Z,365
2016-09-18T09:03:57.683Z,350
2016-09-18T09:04:57.366Z,370
2016-09-18T09:05:57.346Z,455
2016-09-18T09:06:57.333Z,425
2016-09-18T09:07:57.302Z,355
2016-09-18T09:08:57.284Z,375
2016-09-18T09:09:57.263Z,395
2016-09-18T09:10:57.260Z,430
2016-09-18T09:11:57.236Z,425
2016-09-18T09:12:57.205Z,425
2016-09-18T09:13:57.205Z,485
2016-09-18T09:14:57.162Z,520
2016-09-18T09:15:57.145Z,575
2016-09-18T09:16:57.123Z,545
2016-09-18T09:17:57.108Z,505
2016-09-18T09:18:57.095Z,530
2016-09-18T09:19:57.071Z,600
2016-09-18T09:20:57.351Z,580
2016-09-18T09:21:57.033Z,555
2016-09-18T09:22:57.012Z,575
2016-09-18T09:23:56.989Z,560
2016-09-18T09:24:56.974Z,630
2016-09-18T09:25:56.947Z,705
2016-09-18T09:26:57.221Z,705
2016-09-18T09:27:56.919Z,770
2016-09-18T09:28:56.888Z,875
2016-09-18T09:29:56.869Z,960
2016-09-18T09:30:56.847Z,870
2016-09-18T09:31:56.839Z,805
2016-09-18T09:32:56.812Z,830
2016-09-18T09:33:56.791Z,835
2016-09-18T09:34:56.779Z,830
2016-09-18T09:35:56.757Z,855
2016-09-18T09:36:56.738Z,910
2016-09-18T09:37:56.718Z,920
2016-09-18T09:38:56.699Z,925
2016-09-18T09:39:56.678Z,935
2016-09-18T09:40:56.664Z,915
2016-09-18T09:41:56.657Z,895
2016-09-18T09:42:56.631Z,1025
2016-09-18T09:43:56.625Z,1135
2016-09-18T09:44:56.592Z,1095
2016-09-18T09:45:56.576Z,1080
2016-09-18T09:46:56.555Z,1040
2016-09-18T09:47:56.546Z,1030
2016-09-18T09:48:56.524Z,995
2016-09-18T09:49:56.504Z,885
2016-09-18T09:50:56.493Z,755
2016-09-18T09:51:56.469Z,700
2016-09-18T09:52:56.452Z,745
2016-09-18T09:53:56.438Z,715
2016-09-18T09:54:56.419Z,715
2016-09-18T09:55:56.412Z,805
2016-09-18T09:56:56.381Z,840
2016-09-18T09:57:56.373Z,795
2016-09-18T09:58:56.348Z,795
2016-09-18T09:59:56.338Z,845
2016-09-18T10:00:56.333Z,815
2016-09-18T10:01:56.304Z,850
2016-09-18T10:02:56.288Z,935
2016-09-18T10:03:56.274Z,940
2016-09-18T10:04:56.261Z,890
2016-09-18T10:05:56.237Z,850
2016-09-18T10:06:56.217Z,875
2016-09-18T10:07:56.212Z,940
2016-09-18T10:08:56.182Z,925
2016-09-18T10:09:56.161Z,980
2016-09-18T10:10:56.149Z,895
2016-09-18T10:11:56.136Z,820
2016-09-18T10:12:56.120Z,850
2016-09-18T10:13:56.098Z,815
2016-09-18T10:14:56.093Z,790
2016-09-18T10:15:56.069Z,890
2016-09-18T10:16:56.051Z,1035
2016-09-18T10:17:56.054Z,1025
2016-09-18T10:18:56.013Z,900
2016-09-18T10:19:56.004Z,740
2016-09-18T10:20:55.985Z,720
2016-09-18T10:21:55.970Z,770
2016-09-18T10:22:55.955Z,710
2016-09-18T10:23:55.939Z,685
2016-09-18T10:24:55.917Z,700
2016-09-18T10:25:55.910Z,710
2016-09-18T10:26:55.882Z,745
2016-09-18T10:27:55.874Z,860
2016-09-18T10:28:55.854Z,940
2016-09-18T10:29:55.837Z,815
2016-09-18T10:30:55.830Z,710
2016-09-18T10:31:55.802Z,680
2016-09-18T10:32:56.093Z,650
2016-09-18T10:33:55.793Z,620
2016-09-18T10:34:55.763Z,580
2016-09-18T10:35:55.740Z,540
2016-09-18T10:36:55.735Z,550
2016-09-18T10:37:55.705Z,580
2016-09-18T10:38:55.686Z,610
2016-09-18T10:39:55.665Z,635
2016-09-18T10:40:55.654Z,660
2016-09-18T10:41:55.801Z,680
2016-09-18T10:42:55.629Z,690
2016-09-18T10:43:55.596Z,680
2016-09-18T10:44:55.584Z,695
2016-09-18T10:45:55.564Z,745
2016-09-18T10:46:55.554Z,820
2016-09-18T10:47:55.832Z,900
2016-09-18T10:48:55.513Z,975
2016-09-18T10:49:55.497Z,1055
2016-09-18T10:50:55.488Z,1135
2016-09-18T10:51:55.465Z,1135
2016-09-18T10:52:55.453Z,1070
2016-09-18T10:53:55.429Z,1020
2016-09-18T10:54:55.408Z,1015
2016-09-18T10:55:55.400Z,1020
2016-09-18T10:56:55.378Z,975
2016-09-18T10:57:55.365Z,890
2016-09-18T10:58:55.340Z,875
2016-09-18T10:59:55.336Z,865
2016-09-18T11:00:55.308Z,775
2016-09-18T11:01:55.303Z,705
2016-09-18T11:02:55.277Z,725
2016-09-18T11:03:55.262Z,745
2016-09-18T11:04:55.245Z,645
2016-09-18T11:05:55.530Z,540
2016-09-18T11:06:55.215Z,550
2016-09-18T11:07:55.201Z,595
2016-09-18T11:08:55.184Z,605
2016-09-18T11:09:55.175Z,630
2016-09-18T11:10:55.155Z,625
2016-09-18T11:11:55.141Z,615
2016-09-18T11:12:55.133Z,615
2016-09-18T11:13:55.112Z,645
2016-09-18T11:14:55.094Z,605
2016-09-18T11:15:55.065Z,630
2016-09-18T11:16:55.057Z,755
2016-09-18T11:17:55.032Z,770
2016-09-18T11:18:55.019Z,765
2016-09-18T11:19:55.002Z,840
2016-09-18T11:20:54.986Z,875
2016-09-18T11:21:54.967Z,835
2016-09-18T11:22:54.952Z,795
2016-09-18T11:23:54.944Z,765
2016-09-18T11:24:54.921Z,745
2016-09-18T11:25:54.911Z,735
2016-09-18T11:26:54.889Z,745
2016-09-18T11:27:54.874Z,745
2016-09-18T11:28:54.862Z,825
2016-09-18T11:29:54.844Z,940
2016-09-18T11:30:54.829Z,1050
2016-09-18T11:31:54.828Z,1155
2016-09-18T11:32:54.792Z,1180
2016-09-18T11:33:54.778Z,1195
2016-09-18T11:34:54.761Z,1170
2016-09-18T11:35:54.739Z,1155
2016-09-18T11:36:54.731Z,1140
2016-09-18T11:37:55.008Z,1085
2016-09-18T11:38:54.698Z,1105
2016-09-18T11:39:54.677Z,1015
2016-09-18T11:40:54.670Z,865
2016-09-18T11:41:54.649Z,765
2016-09-18T11:42:54.635Z,670
2016-09-18T11:43:54.930Z,570
2016-09-18T11:44:54.606Z,475
2016-09-18T11:45:54.587Z,440
2016-09-18T11:46:54.581Z,440
2016-09-18T11:47:54.567Z,465
2016-09-18T11:48:54.537Z,485
2016-09-18T11:49:54.524Z,495
2016-09-18T11:50:54.507Z,505
2016-09-18T11:51:54.504Z,530
2016-09-18T11:52:54.475Z,575
2016-09-18T11:53:54.467Z,590
2016-09-18T11:54:54.447Z,620
2016-09-18T11:55:54.440Z,640
2016-09-18T11:56:54.410Z,680
2016-09-18T11:57:54.403Z,725
2016-09-18T11:58:54.383Z,715
2016-09-18T11:59:54.399Z,695
2016-09-18T12:00:54.352Z,720
2016-09-18T12:01:54.337Z,710
2016-09-18T12:02:54.316Z,755
2016-09-18T12:03:54.299Z,790
2016-09-18T12:04:54.280Z,785
2016-09-18T12:05:54.262Z,750
2016-09-18T12:06:54.254Z,745
2016-09-18T12:07:54.241Z,820
2016-09-18T12:08:54.214Z,935
2016-09-18T12:09:54.203Z,945
2016-09-18T12:10:54.184Z,940
2016-09-18T12:16:47.107Z,855
2016-09-18T12:17:17.245Z,800
2016-09-18T12:18:17.229Z,745
2016-09-18T12:19:17.210Z,760
2016-09-18T12:20:17.199Z,770
2016-09-18T12:21:17.183Z,815
2016-09-18T12:22:17.172Z,870
2016-09-18T12:23:17.153Z,930
2016-09-18T12:24:17.137Z,925
2016-09-18T12:25:17.119Z,990
2016-09-18T12:26:17.103Z,1005
2016-09-18T12:27:17.086Z,1015
2016-09-18T12:28:17.073Z,995
2016-09-18T12:29:17.059Z,930
2016-09-18T12:30:17.040Z,905
2016-09-18T12:31:17.029Z,910
2016-09-18T12:32:17.015Z,865
2016-09-18T12:33:16.992Z,820
2016-09-18T12:34:16.993Z,785
2016-09-18T12:35:16.965Z,800
2016-09-18T12:36:16.948Z,815
2016-09-18T12:37:16.933Z,845
2016-09-18T12:38:16.932Z,895
2016-09-18T12:39:16.901Z,895
2016-09-18T12:40:16.903Z,880
2016-09-18T12:41:16.866Z,775
2016-09-18T12:42:16.863Z,695
2016-09-18T12:43:16.836Z,620
2016-09-18T12:44:16.835Z,640
2016-09-18T12:45:16.814Z,685
2016-09-18T12:46:16.797Z,745
2016-09-18T12:47:16.786Z,760
2016-09-18T12:48:16.776Z,745
2016-09-18T12:49:16.757Z,690
2016-09-18T12:50:16.750Z,640
2016-09-18T12:51:16.718Z,710
2016-09-18T12:52:16.705Z,795
2016-09-18T12:53:16.689Z,855
2016-09-18T12:54:16.670Z,820
2016-09-18T12:55:16.656Z,755
2016-09-18T12:56:16.635Z,685
2016-09-18T12:57:16.629Z,705
2016-09-18T12:58:16.605Z,710
2016-09-18T12:59:16.598Z,790
2016-09-18T13:00:16.886Z,820
2016-09-18T13:01:16.565Z,850
2016-09-18T13:02:16.544Z,900
2016-09-18T13:03:16.532Z,940
2016-09-18T13:04:16.512Z,940
2016-09-18T13:05:16.501Z,865
2016-09-18T13:06:16.486Z,865
2016-09-18T13:07:16.465Z,805
2016-09-18T13:08:16.452Z,770
2016-09-18T13:09:16.433Z,750
2016-09-18T13:10:16.419Z,745
2016-09-18T13:11:16.403Z,730
2016-09-18T13:12:16.390Z,740
2016-09-18T13:13:16.371Z,755
2016-09-18T13:14:16.361Z,805
2016-09-18T13:15:16.337Z,825
2016-09-18T13:16:16.340Z,840
2016-09-18T13:17:16.613Z,835
2016-09-18T13:18:16.298Z,805
2016-09-18T13:19:16.288Z,745
2016-09-18T13:20:16.266Z,700
2016-09-18T13:21:16.257Z,705
2016-09-18T13:22:16.242Z,650
2016-09-18T13:23:16.223Z,705
2016-09-18T13:24:16.509Z,825
2016-09-18T13:25:16.187Z,895
2016-09-18T13:26:16.172Z,930
2016-09-18T13:27:16.157Z,915
2016-09-18T13:28:16.141Z,870
2016-09-18T13:29:16.129Z,780
2016-09-18T13:30:16.220Z,730
2016-09-18T13:31:16.096Z,650
2016-09-18T13:32:16.076Z,655
2016-09-18T13:33:16.065Z,710
2016-09-18T13:34:16.045Z,770
2016-09-18T13:35:16.037Z,810
2016-09-18T13:36:16.067Z,825
2016-09-18T13:37:16.001Z,835
2016-09-18T13:38:15.993Z,840
2016-09-18T13:39:15.974Z,830
2016-09-18T13:40:15.960Z,795
2016-09-18T13:41:15.938Z,755
2016-09-18T13:42:15.926Z,710
2016-09-18T13:43:15.911Z,675
2016-09-18T13:44:15.892Z,620
2016-09-18T13:45:15.879Z,570
2016-09-18T13:46:15.862Z,520
2016-09-18T13:47:15.847Z,505
2016-09-18T13:48:15.838Z,500
2016-09-18T13:49:15.822Z,525
2016-09-18T13:50:15.804Z,580
2016-09-18T13:51:15.785Z,620
2016-09-18T13:52:15.773Z,650
2016-09-18T13:53:15.759Z,685
2016-09-18T13:54:15.739Z,695
2016-09-18T13:55:15.720Z,685
2016-09-18T13:56:15.712Z,605
2016-09-18T13:57:15.689Z,520
2016-09-18T13:58:15.674Z,470
2016-09-18T13:59:15.666Z,490
2016-09-18T14:00:15.641Z,540
2016-09-18T14:01:15.627Z,605
2016-09-18T14:02:15.612Z,690
2016-09-18T14:03:15.595Z,760
2016-09-18T14:04:15.583Z,760
2016-09-18T14:05:15.571Z,715
2016-09-18T14:06:15.549Z,660
2016-09-18T14:07:15.529Z,620
2016-09-18T14:08:15.813Z,600
2016-09-18T14:09:15.502Z,625
2016-09-18T14:10:15.478Z,575
2016-09-18T14:11:15.471Z,555
2016-09-18T14:12:15.451Z,545
2016-09-18T14:13:15.436Z,525
2016-09-18T14:14:15.416Z,505
2016-09-18T14:15:15.405Z,495